Time;durP1;ratioP1;P1;durP2;ratioP2;P2;SDS_P1;SDS_P2;PMS_P1;PMS_P2;Temp;Humidity;BMP_temperature;BMP_pressure;BME280_temperature;BME280_humidity;BME280_pressure;Samples;Min_cycle;Max_cycle;Signal;HPM_P1;HPM_P2
2021/08/31 00:00:55;;;;;;;32.33;19.70;;;;;;;13.87;98.06;102157.41;2089958;28;20032;-60
2021/08/31 00:01:56;;;;;;;27.73;19.33;;;;;;;13.87;97.71;102154.78;2089902;28;20031;-60
2021/08/31 00:02:56;;;;;;;29.77;19.27;;;;;;;13.87;97.79;102157.41;2090037;28;20032;-60
2021/08/31 00:03:56;;;;;;;32.97;21.03;;;;;;;13.88;97.81;102154.75;2089981;28;20378;-60
2021/08/31 00:04:58;;;;;;;23.17;19.43;;;;;;;13.90;97.67;102158.16;2081140;28;20033;-60
2021/08/31 00:05:58;;;;;;;29.20;19.75;;;;;;;13.89;97.59;102159.06;2082618;28;20029;-60
2021/08/31 00:06:58;;;;;;;30.27;20.17;;;;;;;13.90;97.56;102154.69;2091661;28;20025;-61
2021/08/31 00:07:59;;;;;;;33.60;21.03;;;;;;;13.90;97.79;102162.56;2090936;28;20033;-60
2021/08/31 00:08:59;;;;;;;31.77;21.27;;;;;;;13.90;97.42;102158.16;2091012;28;20032;-60
2021/08/31 00:09:59;;;;;;;25.70;18.23;;;;;;;13.91;97.64;102164.28;2091753;28;20036;-61
2021/08/31 00:10:59;;;;;;;33.57;20.73;;;;;;;13.91;97.60;102159.03;2091836;28;20051;-60
2021/08/31 00:12:00;;;;;;;31.13;20.73;;;;;;;13.93;97.50;102156.34;2082601;28;20525;-60
2021/08/31 00:13:00;;;;;;;28.53;19.20;;;;;;;13.94;97.29;102163.28;2082738;28;20143;-60
2021/08/31 00:14:00;;;;;;;28.20;18.73;;;;;;;13.95;97.40;102162.38;2091462;28;20040;-60
2021/08/31 00:15:02;;;;;;;28.53;19.53;;;;;;;13.96;97.88;102166.75;2091522;28;20555;-60
2021/08/31 00:16:03;;;;;;;29.98;19.08;;;;;;;13.97;97.40;102165.81;2091341;28;20087;-61
2021/08/31 00:17:04;;;;;;;33.47;20.83;;;;;;;13.98;97.25;102154.41;2091499;28;20497;-60
2021/08/31 00:18:05;;;;;;;;;;;;;;;13.99;97.47;102167.47;2091949;28;20025;-60
2021/08/31 00:19:05;;;;;;;32.13;21.57;;;;;;;14.00;97.39;102163.09;2091493;28;20357;-60
2021/08/31 00:20:07;;;;;;;30.00;20.00;;;;;;;14.02;97.54;102166.50;2090873;28;20032;-61
2021/08/31 00:21:07;;;;;;;29.27;20.80;;;;;;;14.01;97.35;102164.78;2090790;28;20378;-60
2021/08/31 00:22:08;;;;;;;29.77;20.60;;;;;;;14.01;97.27;102168.28;2090803;28;20017;-59
2021/08/31 00:23:09;;;;;;;31.27;21.50;;;;;;;14.02;97.23;102170.00;2090846;28;20029;-60
2021/08/31 00:24:09;;;;;;;29.23;20.17;;;;;;;14.01;97.16;102170.03;2091396;28;20047;-60
2021/08/31 00:25:09;;;;;;;26.93;18.13;;;;;;;14.01;96.71;102170.03;2091454;28;20086;-61
2021/08/31 00:26:10;;;;;;;30.10;20.98;;;;;;;14.03;97.07;102171.69;2091466;28;20280;-59
2021/08/31 00:27:10;;;;;;;29.10;20.27;;;;;;;14.03;97.09;102168.22;2091541;28;20055;-60
2021/08/31 00:28:10;;;;;;;32.83;19.73;;;;;;;14.03;97.30;102171.69;2082643;28;20021;-60
2021/08/31 00:29:10;;;;;;;30.60;20.80;;;;;;;14.04;97.06;102167.31;2082617;28;20160;-60
2021/08/31 00:30:11;;;;;;;32.07;20.57;;;;;;;14.04;97.04;102165.53;2090983;28;20465;-60
2021/08/31 00:31:12;;;;;;;34.25;21.65;;;;;;;14.05;96.70;102176.91;2091514;28;20026;-60
2021/08/31 00:32:12;;;;;;;29.10;20.57;;;;;;;14.06;97.17;102173.34;2091428;28;20017;-59
2021/08/31 00:33:12;;;;;;;32.60;22.07;;;;;;;14.08;96.93;102176.78;2091612;28;20103;-61
2021/08/31 00:34:12;;;;;;;30.40;20.83;;;;;;;14.10;96.97;102174.13;2091445;28;20052;-60
2021/08/31 00:35:13;;;;;;;31.57;21.17;;;;;;;14.08;96.85;102168.91;2091556;28;20024;-60
2021/08/31 00:36:13;;;;;;;31.27;21.10;;;;;;;14.11;96.85;102179.31;2091538;28;20470;-60
2021/08/31 00:37:13;;;;;;;29.57;21.10;;;;;;;14.10;96.87;102174.94;2090798;28;20020;-60
2021/08/31 00:38:13;;;;;;;31.40;21.10;;;;;;;14.09;96.96;102175.88;2090711;28;20162;-60
2021/08/31 00:39:14;;;;;;;33.53;22.80;;;;;;;14.10;96.57;102177.56;2091284;28;20104;-61
2021/08/31 00:40:14;;;;;;;26.37;19.60;;;;;;;14.09;96.87;102178.50;2091428;28;20462;-60
2021/08/31 00:41:14;;;;;;;25.90;18.73;;;;;;;14.08;96.64;102176.78;2091332;28;20052;-60
2021/08/31 00:42:14;;;;;;;30.87;21.00;;;;;;;14.06;96.66;102175.97;2090696;28;20021;-62
2021/08/31 00:43:18;;;;;;;31.73;21.07;;;;;;;14.08;96.55;102179.41;2090763;28;20028;-59
2021/08/31 00:44:25;;;;;;;33.10;22.55;;;;;;;14.09;96.62;102183.75;2091164;28;20075;-59
2021/08/31 00:45:26;;;;;;;31.15;20.83;;;;;;;14.06;96.58;102181.22;2082373;28;20032;-60
2021/08/31 00:46:26;;;;;;;31.87;20.03;;;;;;;14.07;96.59;102179.47;2082584;28;20028;-60
2021/08/31 00:47:26;;;;;;;30.87;19.73;;;;;;;14.06;96.43;102181.22;2091287;28;20108;-60
2021/08/31 00:48:27;;;;;;;32.97;21.15;;;;;;;14.09;96.47;102183.75;2091314;28;20021;-61
2021/08/31 00:49:27;;;;;;;34.93;21.20;;;;;;;14.09;96.47;102178.50;2091133;28;20029;-60
2021/08/31 00:50:28;;;;;;;31.95;22.05;;;;;;;14.10;96.40;102177.56;2091363;28;20025;-59
2021/08/31 00:51:28;;;;;;;28.83;20.47;;;;;;;14.11;96.67;102176.69;2090654;28;20083;-60
2021/08/31 00:52:28;;;;;;;32.25;21.83;;;;;;;14.11;96.50;102175.81;2090641;28;20086;-60
2021/08/31 00:53:29;;;;;;;31.70;21.43;;;;;;;14.10;96.54;102180.19;2082328;28;20495;-60
2021/08/31 00:54:30;;;;;;;34.97;23.40;;;;;;;14.11;96.53;102181.06;2082444;28;20037;-60
2021/08/31 00:55:30;;;;;;;;;;;;;;;14.11;96.69;102184.56;2091577;28;20115;-60
2021/08/31 00:56:31;;;;;;;32.92;20.58;;;;;;;14.13;96.46;102182.72;2091183;28;19984;-60
2021/08/31 00:57:31;;;;;;;29.17;20.23;;;;;;;14.12;96.52;102178.38;2091144;28;20029;-61
2021/08/31 00:58:32;;;;;;;28.93;21.33;;;;;;;14.13;96.52;102174.84;2091220;28;20064;-60
2021/08/31 00:59:33;;;;;;;29.77;19.33;;;;;;;14.16;96.68;102180.00;2091073;28;20025;-59
2021/08/31 01:00:33;;;;;;;32.47;22.17;;;;;;;14.17;96.48;102178.22;2090483;28;20112;-60
2021/08/31 01:01:34;;;;;;;27.17;20.03;;;;;;;14.16;96.84;102180.00;2090524;28;20029;-60
2021/08/31 01:02:34;;;;;;;34.27;23.03;;;;;;;14.19;96.52;102188.69;2091111;28;20028;-60
2021/08/31 01:03:34;;;;;;;33.20;22.77;;;;;;;14.20;96.74;102182.50;2091166;28;20025;-60
2021/08/31 01:04:35;;;;;;;29.02;21.15;;;;;;;14.21;96.62;102181.59;2091165;28;20071;-59
2021/08/31 01:05:35;;;;;;;31.87;22.73;;;;;;;14.22;96.37;102188.53;2091204;28;20502;-60
2021/08/31 01:06:36;;;;;;;33.85;21.95;;;;;;;14.23;96.43;102182.41;2091183;28;20100;-60
2021/08/31 01:07:37;;;;;;;28.20;20.88;;;;;;;14.25;96.50;102184.06;2091123;28;20017;-59
2021/08/31 01:08:38;;;;;;;34.58;22.02;;;;;;;14.24;96.41;102181.47;2091105;28;20029;-60
2021/08/31 01:09:41;;;;;;;26.98;19.85;;;;;;;14.27;96.55;102191.88;2091051;28;20029;-59
2021/08/31 01:10:42;;;;;;;30.92;21.52;;;;;;;14.27;96.40;102186.63;2091094;28;20060;-60
2021/08/31 01:11:43;;;;;;;30.33;20.05;;;;;;;14.27;96.33;102192.72;2082144;28;20414;-60
2021/08/31 01:12:43;;;;;;;34.40;23.08;;;;;;;14.28;96.29;102189.19;2082291;28;20030;-60
2021/08/31 01:13:44;;;;;;;34.33;21.83;;;;;;;14.29;96.54;102190.03;2091029;28;20372;-60
2021/08/31 01:14:45;;;;;;;30.80;22.05;;;;;;;14.31;96.27;102190.00;2090320;28;20045;-59
2021/08/31 01:15:47;;;;;;;34.50;23.92;;;;;;;14.30;96.26;102194.38;2090305;28;20052;-60
2021/08/31 01:16:49;;;;;;;30.73;21.90;;;;;;;14.31;96.28;102192.63;2090663;28;20025;-59
2021/08/31 01:17:49;;;;;;;33.17;21.48;;;;;;;14.33;96.20;102190.81;2091048;28;20459;-59
2021/08/31 01:18:49;;;;;;;35.47;21.43;;;;;;;14.33;96.03;102191.63;2090443;28;20028;-61
2021/08/31 01:19:50;;;;;;;34.40;22.40;;;;;;;14.34;95.96;102187.25;2090473;28;20080;-60
2021/08/31 01:20:52;;;;;;;31.83;20.53;;;;;;;14.34;96.13;102188.09;2091040;28;20035;-61
2021/08/31 01:21:53;;;;;;;33.08;21.48;;;;;;;14.34;96.01;102190.72;2091014;28;20036;-60
2021/08/31 01:22:53;;;;;;;26.77;20.57;;;;;;;14.36;95.96;102188.03;2091072;28;20470;-60
2021/08/31 01:23:53;;;;;;;33.27;22.70;;;;;;;14.35;95.87;102184.56;2091162;28;20025;-61
2021/08/31 01:24:58;;;;;;;31.80;20.87;;;;;;;14.37;95.82;102182.72;2090981;28;20032;-60
2021/08/31 01:25:59;;;;;;;33.90;21.83;;;;;;;14.37;95.71;102190.59;2090813;28;20032;-59
2021/08/31 01:27:00;;;;;;;31.98;22.13;;;;;;;14.37;95.62;102187.97;2090977;28;20366;-60
2021/08/31 01:28:00;;;;;;;28.77;22.27;;;;;;;14.34;95.63;102188.09;2090349;28;20025;-60
2021/08/31 01:29:04;;;;;;;36.23;22.37;;;;;;;14.35;96.10;102188.97;2090439;28;20053;-60
2021/08/31 01:30:05;;;;;;;37.20;23.08;;;;;;;14.34;95.67;102177.59;2090370;28;20035;-60
2021/08/31 01:31:05;;;;;;;34.55;25.05;;;;;;;14.33;95.70;102186.38;2090395;28;20029;-60
2021/08/31 01:32:06;;;;;;;33.90;24.27;;;;;;;14.35;95.72;102186.34;2090924;28;20386;-61
2021/08/31 01:33:08;;;;;;;27.67;20.13;;;;;;;14.38;95.58;102189.72;2091002;28;20029;-61
2021/08/31 01:34:09;;;;;;;33.92;21.42;;;;;;;14.40;95.66;102187.00;2090922;28;20040;-60
2021/08/31 01:35:09;;;;;;;32.23;22.97;;;;;;;14.39;95.54;102195.81;2082042;28;20108;-60
2021/08/31 01:36:21;;;;;;;30.70;20.53;;;;;;;14.39;95.17;102187.94;2073958;28;20510;-60
2021/08/31 01:37:22;;;;;;;30.48;20.80;;;;;;;14.39;95.35;102188.81;2083845;28;20025;-61
2021/08/31 01:38:22;;;;;;;30.90;22.07;;;;;;;14.38;95.04;102189.72;2090958;28;20013;-60
2021/08/31 01:39:23;;;;;;;28.17;20.30;;;;;;;14.38;95.33;102184.47;2090939;28;20283;-60
2021/08/31 01:40:23;;;;;;;34.22;23.13;;;;;;;14.36;95.38;102183.66;2081939;28;20057;-60
2021/08/31 01:41:25;;;;;;;29.43;22.73;;;;;;;14.36;95.43;102191.53;2082215;28;20040;-60
2021/08/31 01:42:25;;;;;;;32.55;21.92;;;;;;;14.35;95.40;102195.09;2091028;28;20382;-60
2021/08/31 01:43:26;;;;;;;28.40;21.40;;;;;;;14.33;95.42;102188.19;2090943;28;20021;-59
2021/08/31 01:44:27;;;;;;;29.83;21.73;;;;;;;14.34;95.40;102198.59;2090878;28;20032;-61
2021/08/31 01:45:27;;;;;;;34.70;22.23;;;;;;;14.32;95.62;102200.44;2090274;28;20128;-61
2021/08/31 01:46:28;;;;;;;35.22;20.98;;;;;;;14.33;95.72;102190.81;2090317;28;20024;-62
2021/08/31 01:47:28;;;;;;;32.93;23.40;;;;;;;14.33;95.56;102196.06;2091038;28;20031;-60
2021/08/31 01:48:28;;;;;;;34.43;21.83;;;;;;;14.33;95.44;102194.25;2090970;28;20122;-61
2021/08/31 01:49:28;;;;;;;29.60;22.13;;;;;;;14.34;95.47;102197.75;2090961;28;20058;-60
2021/08/31 01:50:29;;;;;;;32.30;21.03;;;;;;;14.33;95.64;102196.06;2090838;28;20096;-62
2021/08/31 01:51:29;;;;;;;33.23;22.53;;;;;;;14.34;95.60;102201.22;2090986;28;20036;-60
2021/08/31 01:52:29;;;;;;;37.03;22.23;;;;;;;14.34;95.44;102201.22;2090939;28;20063;-60
2021/08/31 01:53:29;;;;;;;29.70;22.17;;;;;;;14.33;95.57;102196.88;2090804;28;20505;-60
2021/08/31 01:54:30;;;;;;;34.43;21.20;;;;;;;14.36;95.51;102201.16;2090793;28;20065;-60
2021/08/31 01:55:31;;;;;;;35.87;23.50;;;;;;;14.36;95.61;102201.16;2081981;28;20025;-60
2021/08/31 01:56:31;;;;;;;;;;;;;;;14.38;95.80;102202.84;2074173;28;20026;-60
2021/08/31 01:57:32;;;;;;;32.78;22.20;;;;;;;14.39;95.54;102204.56;2082015;28;20452;-60
2021/08/31 01:58:35;;;;;;;27.67;20.85;;;;;;;14.41;95.56;102200.09;2090863;28;20029;-61
2021/08/31 01:59:35;;;;;;;32.53;21.52;;;;;;;14.42;95.59;102204.44;2090872;28;20493;-60
2021/08/31 02:00:36;;;;;;;32.37;21.60;;;;;;;14.42;95.39;102200.94;2090842;28;20025;-60
2021/08/31 02:01:40;;;;;;;33.15;22.38;;;;;;;14.44;95.54;102203.53;2090723;28;20523;-61
2021/08/31 02:02:40;;;;;;;30.00;21.60;;;;;;;14.44;95.51;102195.66;2090070;28;20051;-60
2021/08/31 02:03:40;;;;;;;30.43;20.90;;;;;;;14.44;95.46;102203.53;2090280;28;20013;-60
2021/08/31 02:04:40;;;;;;;31.77;22.53;;;;;;;14.41;95.63;102194.84;2081931;28;20057;-60
2021/08/31 02:05:41;;;;;;;37.07;22.80;;;;;;;14.42;95.38;102206.22;2082060;28;20526;-60
2021/08/31 02:06:41;;;;;;;31.63;20.83;;;;;;;14.44;95.20;102198.28;2090830;28;20032;-60
2021/08/31 02:07:41;;;;;;;28.37;20.03;;;;;;;14.44;95.32;102199.09;2090847;28;20017;-60
2021/08/31 02:08:41;;;;;;;27.03;18.37;;;;;;;14.45;95.33;102200.84;2090166;28;20577;-61
2021/08/31 02:09:41;;;;;;;32.40;21.20;;;;;;;14.45;95.40;102207.84;2090155;28;20433;-60
2021/08/31 02:10:42;;;;;;;34.23;21.87;;;;;;;14.45;95.35;102200.84;2090720;28;20029;-60
2021/08/31 02:11:42;;;;;;;36.80;24.70;;;;;;;14.45;95.27;102202.59;2090796;28;20017;-60
2021/08/31 02:12:43;;;;;;;29.80;19.97;;;;;;;14.45;95.27;102199.97;2090180;28;20096;-60
2021/08/31 02:13:43;;;;;;;32.77;20.83;;;;;;;14.46;95.34;102204.31;2090146;28;20053;-60
2021/08/31 02:14:43;;;;;;;35.67;21.50;;;;;;;14.45;95.14;102211.34;2090502;28;20061;-60
2021/08/31 02:15:44;;;;;;;32.87;22.43;;;;;;;14.46;95.15;102209.56;2090678;28;20041;-60
2021/08/31 02:16:44;;;;;;;35.43;24.97;;;;;;;14.45;95.15;102207.84;2090042;28;20025;-60
2021/08/31 02:17:44;;;;;;;33.63;22.20;;;;;;;14.45;95.06;102208.72;2081781;28;20053;-60
2021/08/31 02:18:45;;;;;;;30.90;21.83;;;;;;;14.46;95.12;102212.19;2073673;28;20061;-60
2021/08/31 02:19:46;;;;;;;27.48;19.20;;;;;;;14.47;95.20;102208.66;2081965;28;20049;-59
2021/08/31 02:20:46;;;;;;;29.33;22.47;;;;;;;14.48;95.02;102210.38;2090792;28;20036;-60
2021/08/31 02:21:46;;;;;;;30.47;20.00;;;;;;;14.48;94.80;102216.50;2090736;28;20033;-61
2021/08/31 02:22:47;;;;;;;34.67;22.07;;;;;;;14.49;95.17;102212.94;2090696;28;20021;-60
2021/08/31 02:23:47;;;;;;;30.80;23.33;;;;;;;14.48;95.14;102216.50;2090693;28;20489;-61
2021/08/31 02:24:47;;;;;;;31.50;22.20;;;;;;;14.48;95.03;102210.38;2090674;28;20029;-62
2021/08/31 02:25:48;;;;;;;37.40;21.70;;;;;;;14.46;95.08;102212.19;2090559;28;20029;-61
2021/08/31 02:26:48;;;;;;;32.53;21.03;;;;;;;14.45;95.00;102210.47;2089816;28;20056;-61
2021/08/31 02:27:48;;;;;;;34.53;22.73;;;;;;;14.43;94.76;102213.16;2089491;28;20021;-60
2021/08/31 02:28:48;;;;;;;40.60;24.70;;;;;;;14.41;95.21;102212.38;2090253;28;20028;-60
2021/08/31 02:29:49;;;;;;;38.85;23.52;;;;;;;14.41;95.04;102207.97;2090542;28;20169;-60
2021/08/31 02:30:49;;;;;;;34.37;22.93;;;;;;;14.40;95.20;102214.13;2090545;28;20523;-60
2021/08/31 02:31:49;;;;;;;33.53;21.17;;;;;;;14.40;94.98;102208.88;2090558;28;20060;-60
2021/08/31 02:32:50;;;;;;;29.60;21.20;;;;;;;14.41;95.23;102213.22;2090472;28;20029;-61
2021/08/31 02:33:50;;;;;;;33.47;20.23;;;;;;;14.42;95.32;102216.72;2090502;28;20046;-60
2021/08/31 02:34:50;;;;;;;29.23;21.70;;;;;;;14.45;94.89;102213.97;2090475;28;20092;-60
2021/08/31 02:35:51;;;;;;;34.53;22.20;;;;;;;14.47;94.87;102219.19;2090433;28;20492;-59
2021/08/31 02:36:51;;;;;;;35.37;22.87;;;;;;;14.45;95.03;102216.59;2090534;28;20462;-59
2021/08/31 02:37:51;;;;;;;35.50;22.50;;;;;;;14.42;94.72;102221.97;2090334;28;20059;-61
2021/08/31 02:38:52;;;;;;;37.67;24.35;;;;;;;14.40;94.81;102211.50;2090407;28;20021;-60
2021/08/31 02:39:52;;;;;;;32.77;22.93;;;;;;;14.41;95.00;102221.09;2090569;28;20025;-59
2021/08/31 02:40:52;;;;;;;30.70;22.27;;;;;;;14.42;94.90;102222.84;2089822;28;20032;-60
2021/08/31 02:41:52;;;;;;;28.80;21.80;;;;;;;14.42;95.12;102212.31;2081511;28;20052;-61
2021/08/31 02:42:53;;;;;;;36.57;22.00;;;;;;;14.44;95.01;102214.03;2081745;28;20072;-61
2021/08/31 02:43:53;;;;;;;34.60;23.77;;;;;;;14.41;95.12;102213.22;2090360;28;20025;-60
2021/08/31 02:44:53;;;;;;;33.37;21.63;;;;;;;14.40;95.07;102219.38;2090469;28;20020;-60
2021/08/31 02:45:54;;;;;;;37.40;23.37;;;;;;;14.39;95.17;102222.94;2090451;28;20045;-60
2021/08/31 02:46:54;;;;;;;34.73;23.17;;;;;;;14.37;95.29;102209.00;2090487;28;20074;-59
2021/08/31 02:47:54;;;;;;;33.67;21.67;;;;;;;14.39;95.39;102211.56;2090421;28;20025;-59
2021/08/31 02:48:54;;;;;;;37.30;22.73;;;;;;;14.38;95.24;102215.13;2089737;28;20056;-60
2021/08/31 02:49:55;;;;;;;33.73;23.70;;;;;;;14.38;94.99;102213.34;2089819;28;20513;-60
2021/08/31 02:50:55;;;;;;;30.30;20.30;;;;;;;14.37;94.99;102216.88;2090273;28;20070;-60
2021/08/31 02:51:56;;;;;;;36.17;24.93;;;;;;;14.36;95.10;102212.53;2090328;28;20025;-59
2021/08/31 02:52:56;;;;;;;35.28;24.05;;;;;;;14.32;95.24;102213.56;2090261;28;20025;-60
2021/08/31 02:53:56;;;;;;;35.57;23.93;;;;;;;14.30;95.04;102215.38;2090323;28;20064;-61
2021/08/31 02:54:56;;;;;;;30.30;20.97;;;;;;;14.32;95.05;102213.56;2090267;28;20033;-61
2021/08/31 02:55:57;;;;;;;40.73;23.70;;;;;;;14.32;95.26;102213.56;2090263;28;20487;-60
2021/08/31 02:56:57;;;;;;;34.43;23.10;;;;;;;14.31;95.11;102211.88;2090292;28;20449;-61
2021/08/31 02:57:57;;;;;;;41.07;24.40;;;;;;;14.29;95.13;102216.28;2090262;28;20037;-61
2021/08/31 02:58:58;;;;;;;30.90;22.70;;;;;;;14.28;95.22;102215.47;2090379;28;20032;-60
2021/08/31 03:00:00;;;;;;;37.33;22.60;;;;;;;14.29;95.17;102211.03;2090249;28;20021;-60
2021/08/31 03:02:19;;;;;;;38.65;25.23;;;;;;;14.22;95.30;102212.19;2090251;28;20025;-60
2021/08/31 03:03:19;;;;;;;41.30;26.90;;;;;;;14.20;95.29;102211.38;2090225;28;20064;-61
2021/08/31 03:04:19;;;;;;;32.03;23.87;;;;;;;14.19;95.34;102209.69;2089591;28;20138;-60
2021/08/31 03:05:20;;;;;;;36.97;24.13;;;;;;;14.19;95.30;102214.94;2089682;28;20098;-60
2021/08/31 03:06:20;;;;;;;36.50;24.13;;;;;;;14.20;95.18;102211.38;2090204;28;20103;-59
2021/08/31 03:07:20;;;;;;;36.00;24.80;;;;;;;14.18;95.42;102218.44;2090275;28;20275;-60
2021/08/31 03:08:21;;;;;;;41.97;25.73;;;;;;;14.15;95.49;102220.28;2090205;28;20027;-60
2021/08/31 03:09:21;;;;;;;42.37;25.20;;;;;;;14.14;95.48;102218.56;2090167;28;20025;-60
2021/08/31 03:10:23;;;;;;;34.97;25.17;;;;;;;14.15;95.26;102220.28;2090285;28;20028;-59
2021/08/31 03:11:23;;;;;;;36.97;24.58;;;;;;;14.12;95.47;102219.53;2090200;28;20017;-60
2021/08/31 03:12:23;;;;;;;37.10;23.75;;;;;;;14.13;95.43;102211.59;2089537;28;20025;-60
2021/08/31 03:13:24;;;;;;;47.93;25.90;;;;;;;14.10;95.50;102216.94;2089715;28;20025;-61
2021/08/31 03:14:24;;;;;;;35.77;24.13;;;;;;;14.10;95.75;102216.13;2090124;28;20025;-60
2021/08/31 03:15:24;;;;;;;37.05;25.15;;;;;;;14.11;95.50;102218.69;2089953;28;20017;-60
2021/08/31 03:16:25;;;;;;;40.03;27.40;;;;;;;14.08;95.74;102218.78;2081268;28;20036;-60
2021/08/31 03:17:25;;;;;;;40.43;25.60;;;;;;;14.08;95.88;102218.78;2081424;28;20018;-59
2021/08/31 03:18:25;;;;;;;39.27;26.00;;;;;;;14.06;95.76;102219.75;2090116;28;20509;-60
2021/08/31 03:19:26;;;;;;;39.33;25.73;;;;;;;14.06;95.69;102225.00;2090145;28;20462;-60
2021/08/31 03:20:26;;;;;;;43.57;27.27;;;;;;;14.04;95.85;102217.19;2081279;28;20017;-60
2021/08/31 03:21:27;;;;;;;40.55;25.85;;;;;;;14.01;95.69;102219.91;2081308;28;20097;-60
2021/08/31 03:22:27;;;;;;;41.78;26.90;;;;;;;13.97;95.54;102216.56;2090197;28;20037;-60
2021/08/31 03:23:27;;;;;;;42.03;26.83;;;;;;;13.95;95.81;102220.13;2090201;28;20500;-60
2021/08/31 03:24:28;;;;;;;41.57;25.67;;;;;;;13.96;95.63;102224.47;2090234;28;20158;-61
2021/08/31 03:25:28;;;;;;;38.53;25.60;;;;;;;13.95;95.60;102217.50;2090141;28;20029;-61
2021/08/31 03:26:29;;;;;;;37.23;25.97;;;;;;;13.97;95.85;102223.56;2090159;28;20033;-61
2021/08/31 03:27:29;;;;;;;43.87;28.57;;;;;;;13.96;95.99;102227.94;2090114;28;20037;-61
2021/08/31 03:28:29;;;;;;;41.57;26.97;;;;;;;13.96;95.73;102229.72;2090147;28;20098;-61
2021/08/31 03:29:29;;;;;;;40.73;23.33;;;;;;;13.95;95.86;102226.22;2090049;28;20393;-61
2021/08/31 03:30:30;;;;;;;37.03;24.77;;;;;;;13.94;95.90;102221.91;2090126;28;20385;-61
2021/08/31 03:31:30;;;;;;;35.67;26.93;;;;;;;13.94;95.90;102221.03;2090103;28;20100;-60
2021/08/31 03:32:30;;;;;;;40.63;24.83;;;;;;;13.94;95.90;102221.03;2089485;28;20024;-60
2021/08/31 03:33:31;;;;;;;36.78;24.42;;;;;;;13.95;95.82;102225.34;2089526;28;20025;-60
2021/08/31 03:34:31;;;;;;;35.87;23.70;;;;;;;13.96;95.82;102222.69;2090128;28;20066;-60
2021/08/31 03:35:31;;;;;;;37.07;26.07;;;;;;;13.96;95.81;102216.59;2090128;28;20021;-60
2021/08/31 03:36:32;;;;;;;40.27;24.77;;;;;;;13.95;95.69;102223.59;2090122;28;20071;-59
2021/08/31 03:37:32;;;;;;;37.53;24.53;;;;;;;13.97;95.71;102226.19;2090089;28;20025;-60
2021/08/31 03:38:32;;;;;;;33.73;22.97;;;;;;;13.96;95.78;102224.47;2090080;28;20083;-60
2021/08/31 03:39:36;;;;;;;41.03;26.27;;;;;;;13.95;95.63;102217.50;2090769;28;20052;-60
2021/08/31 03:40:36;;;;;;;33.85;24.30;;;;;;;13.96;95.71;102219.22;2091783;28;20028;-60
2021/08/31 03:41:36;;;;;;;40.10;25.27;;;;;;;13.95;95.59;102217.50;2091705;28;20025;-60
2021/08/31 03:42:36;;;;;;;39.63;25.23;;;;;;;13.94;95.91;102226.28;2091772;28;20048;-59
2021/08/31 03:43:37;;;;;;;32.60;23.07;;;;;;;13.98;95.99;102227.88;2091819;28;20029;-60
2021/08/31 03:44:37;;;;;;;41.35;26.15;;;;;;;13.96;95.75;102229.72;2091743;28;20389;-60
2021/08/31 03:45:38;;;;;;;39.37;24.10;;;;;;;13.95;95.76;102222.75;2091095;28;20025;-60
2021/08/31 03:46:38;;;;;;;38.03;23.83;;;;;;;13.96;95.73;102216.59;2091221;28;20033;-60
2021/08/31 03:47:38;;;;;;;37.57;25.17;;;;;;;13.96;95.64;102225.31;2091822;28;20029;-60
2021/08/31 03:48:39;;;;;;;39.63;24.03;;;;;;;13.96;95.71;102222.69;2091766;28;20539;-60
2021/08/31 03:49:39;;;;;;;38.13;22.07;;;;;;;13.97;96.14;102226.19;2091789;28;20483;-60
2021/08/31 03:50:39;;;;;;;34.73;24.23;;;;;;;13.99;95.64;102227.00;2091808;28;20064;-60
2021/08/31 03:51:39;;;;;;;34.13;22.13;;;;;;;13.97;95.58;102219.19;2091682;28;20029;-60
2021/08/31 03:52:40;;;;;;;34.27;22.47;;;;;;;14.01;95.76;102227.78;2091816;28;20071;-60
2021/08/31 03:53:40;;;;;;;34.63;24.77;;;;;;;14.01;95.32;102228.66;2091760;28;20064;-60
2021/08/31 03:54:40;;;;;;;33.30;23.20;;;;;;;14.01;95.66;102226.03;2082721;28;20116;-60
2021/08/31 03:55:40;;;;;;;32.33;23.20;;;;;;;14.01;95.25;102223.41;2082808;28;20284;-59
2021/08/31 03:56:41;;;;;;;34.03;23.50;;;;;;;14.00;95.48;102226.91;2091548;28;20029;-59
2021/08/31 03:57:41;;;;;;;33.20;22.77;;;;;;;13.99;95.35;102219.97;2091660;28;20055;-60
2021/08/31 03:58:41;;;;;;;32.23;23.47;;;;;;;14.01;95.38;102227.78;2082832;28;20063;-60
2021/08/31 03:59:42;;;;;;;35.03;22.47;;;;;;;14.02;95.32;102221.63;2082745;28;20035;-59
2021/08/31 04:00:42;;;;;;;34.73;23.77;;;;;;;14.03;95.28;102223.34;2082791;28;20036;-60
2021/08/31 04:01:42;;;;;;;36.27;24.37;;;;;;;14.05;95.49;102226.75;2082734;28;20296;-61
2021/08/31 04:02:43;;;;;;;37.80;24.87;;;;;;;14.01;95.15;102227.78;2091580;28;20052;-59
2021/08/31 04:03:43;;;;;;;36.08;25.48;;;;;;;14.02;95.17;102234.75;2091515;28;20104;-59
2021/08/31 04:04:43;;;;;;;36.60;23.67;;;;;;;14.03;95.00;102221.56;2091003;28;20494;-60
2021/08/31 04:05:44;;;;;;;35.57;24.17;;;;;;;14.05;94.98;102224.13;2091072;28;20025;-60
2021/08/31 04:06:44;;;;;;;35.87;23.73;;;;;;;14.04;94.95;102235.56;2091632;28;20063;-60
2021/08/31 04:07:44;;;;;;;34.70;23.67;;;;;;;14.01;95.02;102228.66;2091617;28;20032;-60
2021/08/31 04:08:45;;;;;;;43.70;25.30;;;;;;;14.02;95.01;102232.13;2091633;28;20021;-59
2021/08/31 04:09:45;;;;;;;37.67;25.17;;;;;;;14.04;95.16;102232.94;2091535;28;20484;-60
2021/08/31 04:10:45;;;;;;;33.97;25.60;;;;;;;14.03;94.82;102225.97;2091700;28;20029;-60
2021/08/31 04:11:45;;;;;;;39.57;23.63;;;;;;;14.02;94.99;102222.50;2090924;28;20021;-60
2021/08/31 04:12:46;;;;;;;32.27;23.47;;;;;;;14.02;94.98;102230.34;2090959;28;20032;-60
2021/08/31 04:13:46;;;;;;;34.53;24.50;;;;;;;14.00;94.89;102229.53;2091566;28;20032;-61
2021/08/31 04:14:46;;;;;;;43.90;24.90;;;;;;;13.99;95.08;102229.63;2091505;28;20501;-60
2021/08/31 04:15:47;;;;;;;32.47;22.13;;;;;;;14.00;95.02;102226.91;2090699;28;20518;-60
2021/08/31 04:16:48;;;;;;;31.52;22.20;;;;;;;14.01;94.74;102233.03;2090914;28;20017;-61
2021/08/31 04:17:48;;;;;;;36.20;23.00;;;;;;;14.01;94.83;102230.41;2082679;28;20017;-59
2021/08/31 04:18:48;;;;;;;40.63;25.20;;;;;;;13.98;94.78;102239.25;2091591;28;20021;-60
2021/08/31 04:19:48;;;;;;;35.03;23.10;;;;;;;13.98;94.87;102233.13;2090848;28;20139;-59
2021/08/31 04:20:48;;;;;;;35.53;24.97;;;;;;;13.97;94.73;102240.16;2090987;28;20021;-60
2021/08/31 04:21:49;;;;;;;39.37;25.47;;;;;;;13.97;94.69;102239.31;2091429;28;20613;-60
2021/08/31 04:22:49;;;;;;;31.47;23.40;;;;;;;13.96;94.91;102245.47;2091560;28;20394;-60
2021/08/31 04:23:49;;;;;;;40.97;25.00;;;;;;;13.97;94.91;102248.03;2091507;28;20101;-60
2021/08/31 04:24:50;;;;;;;34.10;23.10;;;;;;;13.96;94.91;102245.47;2090789;28;20498;-60
2021/08/31 04:25:50;;;;;;;40.37;24.20;;;;;;;13.93;94.41;102240.31;2090867;28;20028;-60
2021/08/31 04:26:50;;;;;;;34.50;22.93;;;;;;;13.93;94.59;102250.81;2091448;28;20108;-60
2021/08/31 04:27:50;;;;;;;30.77;22.57;;;;;;;13.90;94.49;102247.38;2082477;28;20032;-60
2021/08/31 04:28:51;;;;;;;32.40;22.67;;;;;;;13.93;94.60;102251.69;2082530;28;20060;-60
2021/08/31 04:29:51;;;;;;;30.20;21.77;;;;;;;13.92;94.86;102251.72;2091358;28;20025;-61
2021/08/31 04:30:52;;;;;;;34.67;22.65;;;;;;;13.93;94.32;102256.06;2091407;28;20025;-60
2021/08/31 04:31:52;;;;;;;32.43;23.30;;;;;;;13.93;94.72;102256.06;2091523;28;20507;-60
2021/08/31 04:32:52;;;;;;;39.17;24.63;;;;;;;13.92;94.60;102254.34;2091427;28;20029;-59
2021/08/31 04:33:52;;;;;;;31.83;23.60;;;;;;;13.93;94.48;102256.06;2091459;28;20032;-59
2021/08/31 04:34:55;;;;;;;34.27;23.63;;;;;;;13.92;94.50;102251.72;2091409;28;20052;-60
2021/08/31 04:35:55;;;;;;;34.42;22.80;;;;;;;13.92;94.34;102259.59;2091340;28;20398;-60
2021/08/31 04:36:56;;;;;;;36.40;24.70;;;;;;;13.87;94.54;102252.75;2091399;28;20111;-59